Chrisanthi — SX7108 — position and weather

sailwx.info

Track history (hours):
 
Tides and Currents Weather Stations Pressure Air Temp Water Temp Dewpoint Dewpoint Depression Visibility Wind Speed Wind Dir Waves Ship Positions

Chrisanthi

Last reported at 2016-Aug-25 17:09 UTC. Time now 2016-Aug-26 01:34 UTC.
Position N 36°59' E 025°20'.

Length 56 m; draft 3.9 m.

Type: Ship (hazmat cat A). MMSI: 237009100.

Date/timePositionNaut miles runAvg speedWind from/ knotsBaromVisibWave heightAir tempDewpointWater temp
2016-Aug-25 17:09N 36°59' E 025°20'6 9.7
2016-Aug-25 16:33N 37°05' E 025°19'3 2.9
2016-Aug-25 15:33N 37°06' E 025°22'0 0.2
2016-Aug-25 14:33N 37°06' E 025°22'6 5.8
2016-Aug-25 13:33N 37°10' E 025°16'10 1.6
2016-Aug-25 07:28N 37°08' E 025°05'9 9.8
2016-Aug-25 06:33N 37°14' E 024°57'53 8.9
2016-Aug-25 00:33N 37°35' E 023°56'10 9.7
2016-Aug-24 23:33N 37°39' E 023°44'1010.0
2016-Aug-24 22:33N 37°47' E 023°37'1010.1
2016-Aug-24 21:33N 37°50' E 023°25'1010.2
2016-Aug-24 20:33N 37°53' E 023°13'6 6.1
2016-Aug-24 19:33N 37°55' E 023°05'0 0.0
2016-Aug-24 18:28N 37°55' E 023°05'0 0.0
2016-Aug-24 17:32N 37°55' E 023°05'0 0.0
2016-Aug-24 16:30N 37°55' E 023°05'0 0.0
2016-Aug-24 13:33N 37°55' E 023°05'0 0.0
2016-Aug-24 12:32N 37°55' E 023°05'0 0.0
2016-Aug-24 11:33N 37°55' E 023°05'0 0.0
2016-Aug-24 10:34N 37°55' E 023°05'0 0.0
2016-Aug-24 09:34N 37°55' E 023°05'0 0.0
2016-Aug-24 08:32N 37°55' E 023°05'1 0.5
2016-Aug-24 07:33N 37°55' E 023°06'0 0.0
2016-Aug-24 04:33N 37°55' E 023°06'0 0.0
2016-Aug-24 03:32N 37°55' E 023°06'4 4.2
2016-Aug-24 02:34N 37°54' E 023°11'1010.0
2016-Aug-24 01:34N 37°52' E 023°23'10 9.7
2016-Aug-24 00:34N 37°50' E 023°35'9 8.7
2016-Aug-23 23:33N 37°44' E 023°43'59 9.8
2016-Aug-23 17:33N 37°18' E 024°49'1010.0
2016-Aug-23 16:34N 37°11' E 024°59'8 0.7
2016-Aug-23 04:27N 37°07' E 025°08'9 9.6
2016-Aug-23 03:33N 37°10' E 025°18'10 9.7
2016-Aug-23 02:33N 37°01' E 025°19'1 0.1
2016-Aug-22 01:33N 37°02' E 025°18'6 5.6
2016-Aug-22 00:33N 37°06' E 025°22'0 0.0
2016-Aug-21 23:34N 37°06' E 025°22'0 0.0
2016-Aug-21 22:33N 37°06' E 025°22'0 0.0
2016-Aug-21 21:33N 37°06' E 025°22'1 0.7
2016-Aug-21 20:33N 37°06' E 025°22'0 0.3
2016-Aug-21 19:34N 37°06' E 025°22'2110.3
2016-Aug-21 17:33N 37°16' E 025°45'  
2016-Aug-17 17:13N 36°59' E 025°21'710.4
2016-Aug-17 16:33N 37°06' E 025°19'16 2.6
2016-Aug-17 10:33N 37°11' E 024°60'1010.2
2016-Aug-17 09:33N 37°18' E 024°51'5010.0
2016-Aug-17 04:30N 37°37' E 023°52'9 9.7
2016-Aug-17 03:33N 37°41' E 023°42'10 9.7
2016-Aug-17 02:33N 37°49' E 023°34'1010.0
2016-Aug-17 01:33N 37°51' E 023°22'1010.1
2016-Aug-17 00:33N 37°54' E 023°09'4 3.6
2016-Aug-16 23:33N 37°55' E 023°05'0 0.0
2016-Aug-16 22:33N 37°55' E 023°05'0 0.0
2016-Aug-16 21:33N 37°55' E 023°05'0 0.0
2016-Aug-16 20:33N 37°55' E 023°05'0 0.0
2016-Aug-16 19:33N 37°55' E 023°05'0 0.0
2016-Aug-16 18:32N 37°55' E 023°05'0 0.0
2016-Aug-16 17:33N 37°55' E 023°05'4 0.6
2016-Aug-16 10:23N 37°54' E 023°10'810.1
2016-Aug-16 09:33N 37°53' E 023°21'1010.0
2016-Aug-16 08:33N 37°50' E 023°33'9 9.3
2016-Aug-16 07:33N 37°46' E 023°43'51 8.4
2016-Aug-16 01:28N 37°27' E 024°44'9 9.5
2016-Aug-16 00:33N 37°22' E 024°52'10 9.6
2016-Aug-15 23:32N 37°20' E 025°04'10 9.7
2016-Aug-15 22:33N 37°15' E 025°14'10 9.8
2016-Aug-15 21:33N 37°07' E 025°21'1 1.3
2016-Aug-15 20:33N 37°06' E 025°22'0 0.0
2016-Aug-15 19:33N 37°06' E 025°22'0 0.0
2016-Aug-15 18:33N 37°06' E 025°22'0 0.0
2016-Aug-15 17:33N 37°06' E 025°22'  
Track history (hours):
 
Tides and Currents Weather Stations Pressure Air Temp Water Temp Dewpoint Dewpoint Depression Visibility Wind Speed Wind Dir Waves Ship Positions

Chrisanthi

Last reported at 2016-Aug-25 17:09 UTC. Time now 2016-Aug-26 01:34 UTC.
Position N 36°59' E 025°20'.

Length 56 m; draft 3.9 m.

Type: Ship (hazmat cat A). MMSI: 237009100.

Date/timePositionNaut miles runAvg speedWind from/ knotsBaromVisibWave heightAir tempDewpointWater temp
2016-Aug-25 17:09N 36°59' E 025°20'6 9.7
2016-Aug-25 16:33N 37°05' E 025°19'3 2.9
2016-Aug-25 15:33N 37°06' E 025°22'0 0.2
2016-Aug-25 14:33N 37°06' E 025°22'6 5.8
2016-Aug-25 13:33N 37°10' E 025°16'10 1.6
2016-Aug-25 07:28N 37°08' E 025°05'9 9.8
2016-Aug-25 06:33N 37°14' E 024°57'53 8.9
2016-Aug-25 00:33N 37°35' E 023°56'10 9.7
2016-Aug-24 23:33N 37°39' E 023°44'1010.0
2016-Aug-24 22:33N 37°47' E 023°37'1010.1
2016-Aug-24 21:33N 37°50' E 023°25'1010.2
2016-Aug-24 20:33N 37°53' E 023°13'6 6.1
2016-Aug-24 19:33N 37°55' E 023°05'0 0.0
2016-Aug-24 18:28N 37°55' E 023°05'0 0.0
2016-Aug-24 17:32N 37°55' E 023°05'0 0.0
2016-Aug-24 16:30N 37°55' E 023°05'0 0.0
2016-Aug-24 13:33N 37°55' E 023°05'0 0.0
2016-Aug-24 12:32N 37°55' E 023°05'0 0.0
2016-Aug-24 11:33N 37°55' E 023°05'0 0.0
2016-Aug-24 10:34N 37°55' E 023°05'0 0.0
2016-Aug-24 09:34N 37°55' E 023°05'0 0.0
2016-Aug-24 08:32N 37°55' E 023°05'1 0.5
2016-Aug-24 07:33N 37°55' E 023°06'0 0.0
2016-Aug-24 04:33N 37°55' E 023°06'0 0.0
2016-Aug-24 03:32N 37°55' E 023°06'4 4.2
2016-Aug-24 02:34N 37°54' E 023°11'1010.0
2016-Aug-24 01:34N 37°52' E 023°23'10 9.7
2016-Aug-24 00:34N 37°50' E 023°35'9 8.7
2016-Aug-23 23:33N 37°44' E 023°43'59 9.8
2016-Aug-23 17:33N 37°18' E 024°49'1010.0
2016-Aug-23 16:34N 37°11' E 024°59'8 0.7
2016-Aug-23 04:27N 37°07' E 025°08'9 9.6
2016-Aug-23 03:33N 37°10' E 025°18'10 9.7
2016-Aug-23 02:33N 37°01' E 025°19'1 0.1
2016-Aug-22 01:33N 37°02' E 025°18'6 5.6
2016-Aug-22 00:33N 37°06' E 025°22'0 0.0
2016-Aug-21 23:34N 37°06' E 025°22'0 0.0
2016-Aug-21 22:33N 37°06' E 025°22'0 0.0
2016-Aug-21 21:33N 37°06' E 025°22'1 0.7
2016-Aug-21 20:33N 37°06' E 025°22'0 0.3
2016-Aug-21 19:34N 37°06' E 025°22'2110.3
2016-Aug-21 17:33N 37°16' E 025°45'  
2016-Aug-17 17:13N 36°59' E 025°21'710.4
2016-Aug-17 16:33N 37°06' E 025°19'16 2.6
2016-Aug-17 10:33N 37°11' E 024°60'1010.2
2016-Aug-17 09:33N 37°18' E 024°51'5010.0
2016-Aug-17 04:30N 37°37' E 023°52'9 9.7
2016-Aug-17 03:33N 37°41' E 023°42'10 9.7
2016-Aug-17 02:33N 37°49' E 023°34'1010.0
2016-Aug-17 01:33N 37°51' E 023°22'1010.1
2016-Aug-17 00:33N 37°54' E 023°09'4 3.6
2016-Aug-16 23:33N 37°55' E 023°05'0 0.0
2016-Aug-16 22:33N 37°55' E 023°05'0 0.0
2016-Aug-16 21:33N 37°55' E 023°05'0 0.0
2016-Aug-16 20:33N 37°55' E 023°05'0 0.0
2016-Aug-16 19:33N 37°55' E 023°05'0 0.0
2016-Aug-16 18:32N 37°55' E 023°05'0 0.0
2016-Aug-16 17:33N 37°55' E 023°05'4 0.6
2016-Aug-16 10:23N 37°54' E 023°10'810.1
2016-Aug-16 09:33N 37°53' E 023°21'1010.0
2016-Aug-16 08:33N 37°50' E 023°33'9 9.3
2016-Aug-16 07:33N 37°46' E 023°43'51 8.4
2016-Aug-16 01:28N 37°27' E 024°44'9 9.5
2016-Aug-16 00:33N 37°22' E 024°52'10 9.6
2016-Aug-15 23:32N 37°20' E 025°04'10 9.7
2016-Aug-15 22:33N 37°15' E 025°14'10 9.8
2016-Aug-15 21:33N 37°07' E 025°21'1 1.3
2016-Aug-15 20:33N 37°06' E 025°22'0 0.0
2016-Aug-15 19:33N 37°06' E 025°22'0 0.0
2016-Aug-15 18:33N 37°06' E 025°22'0 0.0
2016-Aug-15 17:33N 37°06' E 025°22'  

Dump ship's entire track history